KGWO

Greenwood-Leflore Airport

Greenwood, Mississippi, USA
METAR KGWO 170737Z AUTO 11008KT 10SM SCT026 OVC100 10/M01 A3007 RMK AO2 PRESFR T01001006
Observed Flight Rules
Dec-17 @ 07:37 UTC (30 minutes ago) Visual Flight Rules
Wind Visibility Clouds
110° at 8 knots 10 miles
  • Scattered at 2,600' AGL
  • Overcast at 10,000' AGL
Temperatures Readings
Current 10°C / 50°F
Dewpoint -1°C / 30°F
Humidity 47%
Altimeter 30.07" Hg
Pressure 1018 hPa
Elevation 44
METAR KGWO 170737Z AUTO 11008KT 10SM SCT026 OVC100 10/M01 A3007 RMK AO2 PRESFR T01001006
Observed Flight Rules
Dec-17 @ 07:37 UTC
(30 minutes ago)
VFR
Wind Visibility
110° at 8 knots 10 miles
Clouds
  • Scattered at 2,600' AGL
  • Overcast at 10,000' AGL
Temperature Dewpoint
10°C / 50°F -1°C / 30°F
Humidity Altimeter Pressure
47% 30.07" Hg 1018 hPa